createdAt,value
2019-03-09T00:04:01.988Z,143196.67
2019-03-09T00:08:57.925Z,143204.84
2019-03-09T00:13:53.840Z,143210.70
2019-03-09T00:18:49.798Z,143220.06
2019-03-09T00:23:47.622Z,143222.42
2019-03-09T00:28:57.491Z,143210.70
2019-03-09T00:33:53.540Z,143196.67
2019-03-09T00:38:49.475Z,143196.67
2019-03-09T00:43:45.472Z,143198.98
2019-03-09T00:48:41.407Z,143198.98
2019-03-09T00:53:37.326Z,143206.03
2019-03-09T00:58:33.244Z,143220.06
2019-03-09T01:03:30.858Z,143229.44
2019-03-09T01:08:26.750Z,143242.31
2019-03-09T01:13:22.671Z,143236.45
2019-03-09T01:18:18.634Z,143245.81
2019-03-09T01:23:16.456Z,143217.72
2019-03-09T01:28:12.383Z,143231.80
2019-03-09T01:33:12.121Z,143220.06
2019-03-09T01:38:07.999Z,143206.03
2019-03-09T01:43:04.126Z,143194.31
2019-03-09T01:48:00.153Z,143175.58
2019-03-09T01:52:56.138Z,143173.22
2019-03-09T01:57:52.079Z,143149.83
2019-03-09T02:02:52.607Z,143147.47
2019-03-09T02:07:48.726Z,143169.72
2019-03-09T02:12:45.056Z,143154.50
2019-03-09T02:17:41.066Z,143139.27
2019-03-09T02:22:37.117Z,143122.87
2019-03-09T02:27:33.042Z,143111.17
2019-03-09T02:32:30.441Z,143098.30
2019-03-09T02:37:26.700Z,143092.44
2019-03-09T02:42:22.644Z,143081.92
2019-03-09T02:47:18.732Z,143088.94
2019-03-09T02:52:14.672Z,143074.91
2019-03-09T02:57:10.623Z,143072.56
2019-03-09T03:02:11.457Z,143066.69
2019-03-09T03:07:07.363Z,143049.13
2019-03-09T03:12:03.530Z,143047.97
2019-03-09T03:16:59.442Z,143043.31
2019-03-09T03:21:55.477Z,143046.81
2019-03-09T03:26:51.440Z,143045.63
2019-03-09T03:31:47.408Z,143042.11
2019-03-09T03:36:43.344Z,143033.94
2019-03-09T03:41:39.333Z,143016.38
2019-03-09T03:46:35.319Z,143015.22
2019-03-09T03:51:31.230Z,143018.72
2019-03-09T03:56:27.297Z,143015.22
2019-03-09T04:01:23.516Z,143004.66
2019-03-09T04:06:19.593Z,143026.89
2019-03-09T04:11:15.601Z,143030.39
2019-03-09T04:16:11.558Z,143039.77
2019-03-09T04:21:07.583Z,143065.55
2019-03-09T04:26:03.512Z,143081.92
2019-03-09T04:30:59.503Z,143091.28
2019-03-09T04:35:55.429Z,143106.52
2019-03-09T04:40:51.390Z,143125.23
2019-03-09T04:45:47.301Z,143139.27
2019-03-09T04:50:43.234Z,143146.33
2019-03-09T04:55:39.352Z,143156.84
2019-03-09T05:00:35.320Z,143186.09
2019-03-09T05:05:31.236Z,143203.69
2019-03-09T05:10:45.918Z,143213.05
2019-03-09T05:15:41.896Z,143224.78
2019-03-09T05:20:37.918Z,143234.14
2019-03-09T05:25:33.836Z,143252.88
2019-03-09T05:30:57.612Z,143269.27
2019-03-09T05:35:53.535Z,143271.63
2019-03-09T05:40:49.554Z,143278.64
2019-03-09T05:45:45.481Z,143292.67
2019-03-09T05:50:42.022Z,143292.67
2019-03-09T05:55:37.943Z,143285.66
2019-03-09T06:00:34.784Z,143290.38
2019-03-09T06:05:41.681Z,143299.73
2019-03-09T06:10:37.702Z,143283.30
2019-03-09T06:15:33.715Z,143266.91
2019-03-09T06:20:29.632Z,143255.19
2019-03-09T06:25:25.557Z,143241.16
2019-03-09T06:30:21.494Z,143245.81
2019-03-09T06:35:20.511Z,143252.88
2019-03-09T06:40:16.451Z,143244.67
2019-03-09T06:45:12.476Z,143262.25
2019-03-09T06:50:13.170Z,143271.63
2019-03-09T06:55:11.085Z,143291.52
2019-03-09T07:00:27.702Z,143309.16
2019-03-09T07:05:23.616Z,143316.17
2019-03-09T07:10:19.531Z,143325.55
2019-03-09T07:15:21.733Z,143337.22
2019-03-09T07:20:17.748Z,143354.81
2019-03-09T07:25:13.657Z,143367.70
2019-03-09T07:30:35.972Z,143373.56
2019-03-09T07:35:31.881Z,143384.09
2019-03-09T07:40:27.915Z,143422.80
2019-03-09T07:45:23.823Z,143428.66
2019-03-09T07:50:19.725Z,143453.28
2019-03-09T07:55:20.070Z,143487.23
2019-03-09T08:00:19.868Z,143491.94
2019-03-09T08:05:16.925Z,143497.81
2019-03-09T08:10:16.653Z,143527.09
2019-03-09T08:15:14.961Z,143550.58
2019-03-09T08:20:12.814Z,143524.75
2019-03-09T08:25:19.312Z,143514.22
2019-03-09T08:30:20.042Z,143503.67
2019-03-09T08:35:16.868Z,143529.45
2019-03-09T08:40:14.701Z,143538.84
2019-03-09T08:45:18.852Z,143548.22
2019-03-09T08:50:16.638Z,143552.89
2019-03-09T08:55:13.787Z,143583.37
2019-03-09T09:00:13.652Z,143599.78
2019-03-09T09:05:09.661Z,143597.47
2019-03-09T09:10:08.076Z,143598.62
2019-03-09T09:15:07.230Z,143605.66
2019-03-09T09:20:07.014Z,143623.27
2019-03-09T09:25:05.363Z,143637.31
2019-03-09T09:30:01.482Z,143653.72
2019-03-09T09:34:57.408Z,143672.48
2019-03-09T09:39:53.329Z,143684.23
2019-03-09T09:44:49.237Z,143695.97
2019-03-09T09:49:45.198Z,143714.75
2019-03-09T09:54:41.127Z,143705.36
2019-03-09T09:59:37.083Z,143740.59
2019-03-09T10:04:33.245Z,143778.14
2019-03-09T10:09:30.046Z,143784.00
2019-03-09T10:14:25.931Z,143785.16
2019-03-09T10:19:23.949Z,143822.72
2019-03-09T10:24:19.918Z,143818.05
2019-03-09T10:29:15.822Z,143837.98
2019-03-09T10:34:12.430Z,143846.22
2019-03-09T10:39:08.300Z,143848.58
2019-03-09T10:44:04.210Z,143876.73
2019-03-09T10:49:00.121Z,143902.55
2019-03-09T10:53:56.024Z,143930.72
2019-03-09T10:58:52.002Z,143954.19
2019-03-09T11:03:48.511Z,143980.00
2019-03-09T11:08:44.391Z,144018.78
2019-03-09T11:13:40.296Z,144048.13
2019-03-09T11:18:36.326Z,144064.56
2019-03-09T11:23:34.369Z,144097.52
2019-03-09T11:28:30.161Z,144081.03
2019-03-09T11:33:28.862Z,144063.41
2019-03-09T11:38:24.862Z,144057.53
2019-03-09T11:43:20.781Z,144111.59
2019-03-09T11:48:16.787Z,144098.67
2019-03-09T11:53:12.720Z,144139.78
2019-03-09T11:58:09.089Z,144199.70
2019-03-09T12:03:05.080Z,144212.67
2019-03-09T12:08:01.044Z,144175.06
2019-03-09T12:12:56.952Z,144207.94
2019-03-09T12:17:52.872Z,144199.70
2019-03-09T12:22:48.786Z,144240.83
2019-03-09T12:27:44.992Z,144297.25
2019-03-09T12:32:40.907Z,144265.52
2019-03-09T12:37:36.832Z,144285.53
2019-03-09T12:42:32.763Z,144300.81
2019-03-09T12:47:28.677Z,144240.83
2019-03-09T12:52:24.581Z,144266.72
2019-03-09T12:57:20.497Z,144219.72
2019-03-09T13:02:16.403Z,144186.78
2019-03-09T13:07:12.294Z,144196.19
2019-03-09T13:12:08.906Z,144209.09
2019-03-09T13:17:04.916Z,144144.52
2019-03-09T13:22:00.919Z,144167.98
2019-03-09T13:26:56.832Z,144163.31
2019-03-09T13:31:52.746Z,144146.87
2019-03-09T13:36:48.761Z,144132.75
2019-03-09T13:41:44.838Z,144124.52
2019-03-09T13:46:40.834Z,144084.56
2019-03-09T13:51:36.741Z,144062.25
2019-03-09T13:56:32.712Z,144059.89
2019-03-09T14:01:28.641Z,144062.25
2019-03-09T14:06:24.676Z,144071.64
2019-03-09T14:11:20.609Z,144064.56
2019-03-09T14:16:16.522Z,144068.13
2019-03-09T14:21:15.443Z,144046.97
2019-03-09T14:26:11.393Z,144045.77
2019-03-09T14:31:07.328Z,143984.72
2019-03-09T14:36:03.265Z,143681.87
2019-03-09T14:40:59.302Z,143493.09
2019-03-09T14:45:56.388Z,143427.47
2019-03-09T14:50:53.589Z,143491.94
2019-03-09T14:55:50.543Z,143525.95
2019-03-09T15:00:47.863Z,143572.84
2019-03-09T15:05:43.890Z,143565.78
2019-03-09T15:10:39.932Z,143597.47
2019-03-09T15:15:35.845Z,143589.25
2019-03-09T15:20:31.894Z,143606.86
2019-03-09T15:25:33.440Z,143591.61
2019-03-09T15:30:29.413Z,143610.38
2019-03-09T15:35:25.519Z,143630.28
2019-03-09T15:40:21.606Z,143642.03
2019-03-09T15:45:19.288Z,143620.91
2019-03-09T15:50:16.446Z,143571.66
2019-03-09T15:55:12.853Z,143475.55
2019-03-09T16:00:22.746Z,143353.66
2019-03-09T16:05:18.665Z,143198.98
2019-03-09T16:10:18.694Z,143084.27
2019-03-09T16:15:15.506Z,143037.45
2019-03-09T16:20:40.852Z,142995.30
2019-03-09T16:25:36.778Z,142914.56
2019-03-09T16:30:34.359Z,142868.97
2019-03-09T16:35:32.030Z,142866.62
2019-03-09T16:40:29.261Z,142882.98
2019-03-09T16:45:25.287Z,142913.41
2019-03-09T16:50:21.226Z,142930.97
2019-03-09T16:55:17.321Z,142953.20
2019-03-09T17:00:19.918Z,142946.19
2019-03-09T17:05:16.172Z,142978.94
2019-03-09T17:10:18.703Z,143011.72
2019-03-09T17:15:17.674Z,143021.08
2019-03-09T17:20:15.606Z,143056.19
2019-03-09T17:25:13.047Z,143145.12
2019-03-09T17:30:14.026Z,143147.47
2019-03-09T17:35:10.853Z,143166.22
2019-03-09T17:40:10.311Z,143159.19
2019-03-09T17:45:16.077Z,143177.94
2019-03-09T17:50:12.556Z,143145.12
2019-03-09T17:55:10.251Z,143166.22
2019-03-09T18:00:12.388Z,143177.94
2019-03-09T18:05:09.065Z,143172.08
2019-03-09T18:10:12.760Z,143182.59
2019-03-09T18:15:09.082Z,143175.58
2019-03-09T18:20:07.912Z,143207.19
2019-03-09T18:25:05.240Z,143182.59
2019-03-09T18:30:02.545Z,143163.86
2019-03-09T18:34:58.558Z,143140.47
2019-03-09T18:39:54.477Z,143133.41
2019-03-09T18:44:50.455Z,143114.67
2019-03-09T18:49:46.480Z,143074.91
2019-03-09T18:54:42.441Z,143050.31
2019-03-09T18:59:39.568Z,143035.09
2019-03-09T19:04:35.588Z,142997.66
2019-03-09T19:09:31.505Z,142988.30
2019-03-09T19:14:27.493Z,142943.84
2019-03-09T19:19:23.446Z,142950.84
2019-03-09T19:24:19.481Z,142962.56
2019-03-09T19:29:15.892Z,142947.34
2019-03-09T19:34:11.811Z,142936.83
2019-03-09T19:39:08.407Z,142890.03
2019-03-09T19:44:04.329Z,142902.91
2019-03-09T19:49:00.272Z,142892.34
2019-03-09T19:53:56.230Z,142888.84
2019-03-09T19:58:52.147Z,142873.62
2019-03-09T20:03:48.114Z,142882.98
2019-03-09T20:08:46.600Z,142887.69
2019-03-09T20:13:42.647Z,142882.98
2019-03-09T20:18:38.582Z,142890.03
2019-03-09T20:23:34.501Z,142875.97
2019-03-09T20:28:30.416Z,142857.27
2019-03-09T20:33:26.344Z,142858.47
2019-03-09T20:38:28.929Z,142837.41
2019-03-09T20:43:24.957Z,142836.20
2019-03-09T20:48:20.971Z,142833.89
2019-03-09T20:53:17.115Z,142826.84
2019-03-09T20:58:13.587Z,142824.53
2019-03-09T21:03:09.672Z,142815.19
2019-03-09T21:08:05.696Z,142805.83
2019-03-09T21:13:06.682Z,142804.63
2019-03-09T21:18:02.904Z,142810.48
2019-03-09T21:22:58.917Z,142824.53
2019-03-09T21:27:55.275Z,142830.39
2019-03-09T21:32:51.379Z,142835.05
2019-03-09T21:37:47.304Z,142836.20
2019-03-09T21:42:43.432Z,142849.11
2019-03-09T21:47:39.406Z,142850.25
2019-03-09T21:52:35.452Z,142861.97
2019-03-09T21:57:31.392Z,142882.98
2019-03-09T22:02:27.449Z,142908.75
2019-03-09T22:07:23.463Z,142928.63
2019-03-09T22:12:19.402Z,142941.48
2019-03-09T22:17:15.340Z,142953.20
2019-03-09T22:22:11.257Z,142894.69
2019-03-09T22:27:07.225Z,142902.91
2019-03-09T22:32:03.235Z,142906.41
2019-03-09T22:36:59.202Z,142922.77
2019-03-09T22:41:55.130Z,142927.47
2019-03-09T22:46:51.047Z,142950.84
2019-03-09T22:51:47.012Z,142961.36
2019-03-09T22:56:48.280Z,142983.63
2019-03-09T23:01:44.322Z,143014.03
2019-03-09T23:06:40.240Z,143032.75
2019-03-09T23:11:36.157Z,143053.83
2019-03-09T23:16:32.179Z,143049.13
2019-03-09T23:21:28.153Z,143067.84
2019-03-09T23:26:26.258Z,143080.77
2019-03-09T23:31:22.196Z,143113.53
2019-03-09T23:36:18.111Z,143121.73
2019-03-09T23:41:14.361Z,143114.67
2019-03-09T23:46:10.274Z,143105.31
2019-03-09T23:51:06.663Z,143098.30
2019-03-09T23:56:02.586Z,143100.66
